sensor_id;sensor_type;location;lat;lon;timestamp;pressure;altitude;pressure_sealevel;temperature;humidity
3150;BME280;32503;47.748;8.960;2022-09-09T00:01:54;96648.06;;;17.08;65.76
3150;BME280;32503;47.748;8.960;2022-09-09T00:04:28;96642.16;;;17.13;65.13
3150;BME280;32503;47.748;8.960;2022-09-09T00:07:04;96645.66;;;17.13;64.99
3150;BME280;32503;47.748;8.960;2022-09-09T00:09:40;96636.78;;;17.05;64.98
3150;BME280;32503;47.748;8.960;2022-09-09T00:12:14;96644.13;;;17.12;64.78
3150;BME280;32503;47.748;8.960;2022-09-09T00:14:49;96645.66;;;17.13;64.80
3150;BME280;32503;47.748;8.960;2022-09-09T00:17:30;96630.91;;;17.07;64.70
3150;BME280;32503;47.748;8.960;2022-09-09T00:20:05;96638.38;;;17.03;64.87
3150;BME280;32503;47.748;8.960;2022-09-09T00:22:42;96634.16;;;16.91;65.01
3150;BME280;32503;47.748;8.960;2022-09-09T00:25:17;96643.16;;;16.84;65.24
3150;BME280;32503;47.748;8.960;2022-09-09T00:27:49;96627.25;;;16.68;65.22
3150;BME280;32503;47.748;8.960;2022-09-09T00:30:20;96651.03;;;16.72;65.54
3150;BME280;32503;47.748;8.960;2022-09-09T00:32:53;96635.50;;;16.61;65.65
3150;BME280;32503;47.748;8.960;2022-09-09T00:35:26;96635.88;;;16.60;65.73
3150;BME280;32503;47.748;8.960;2022-09-09T00:38:00;96653.03;;;16.60;65.77
3150;BME280;32503;47.748;8.960;2022-09-09T00:40:34;96649.13;;;16.65;65.87
3150;BME280;32503;47.748;8.960;2022-09-09T00:43:26;96638.19;;;16.65;65.90
3150;BME280;32503;47.748;8.960;2022-09-09T00:46:29;96645.19;;;16.70;65.66
3150;BME280;32503;47.748;8.960;2022-09-09T00:49:08;96620.28;;;16.60;65.42
3150;BME280;32503;47.748;8.960;2022-09-09T00:51:46;96633.53;;;16.62;65.81
3150;BME280;32503;47.748;8.960;2022-09-09T00:54:31;96620.69;;;16.55;66.16
3150;BME280;32503;47.748;8.960;2022-09-09T00:57:13;96628.47;;;16.57;65.96
3150;BME280;32503;47.748;8.960;2022-09-09T00:59:48;96634.31;;;16.62;66.11
3150;BME280;32503;47.748;8.960;2022-09-09T01:02:27;96637.44;;;16.64;66.07
3150;BME280;32503;47.748;8.960;2022-09-09T01:05:00;96633.50;;;16.65;66.28
3150;BME280;32503;47.748;8.960;2022-09-09T01:07:30;96628.81;;;16.70;66.43
3150;BME280;32503;47.748;8.960;2022-09-09T01:10:00;96621.00;;;16.72;66.19
3150;BME280;32503;47.748;8.960;2022-09-09T01:12:38;96623.34;;;16.73;66.00
3150;BME280;32503;47.748;8.960;2022-09-09T01:15:12;96617.47;;;16.71;66.16
3150;BME280;32503;47.748;8.960;2022-09-09T01:17:56;96619.00;;;16.76;66.21
3150;BME280;32503;47.748;8.960;2022-09-09T01:20:34;96615.97;;;16.66;66.50
3150;BME280;32503;47.748;8.960;2022-09-09T01:23:31;96601.91;;;16.68;66.40
3150;BME280;32503;47.748;8.960;2022-09-09T01:26:19;96602.41;;;16.56;66.65
3150;BME280;32503;47.748;8.960;2022-09-09T01:28:50;96630.44;;;16.60;66.94
3150;BME280;32503;47.748;8.960;2022-09-09T01:31:21;96629.28;;;16.57;67.36
3150;BME280;32503;47.748;8.960;2022-09-09T01:33:50;96620.69;;;16.55;67.21
3150;BME280;32503;47.748;8.960;2022-09-09T01:36:28;96634.31;;;16.62;66.98
3150;BME280;32503;47.748;8.960;2022-09-09T01:38:56;96632.00;;;16.57;67.03
3150;BME280;32503;47.748;8.960;2022-09-09T01:41:25;96624.25;;;16.52;67.61
3150;BME280;32503;47.748;8.960;2022-09-09T01:43:54;96619.63;;;16.42;67.56
3150;BME280;32503;47.748;8.960;2022-09-09T01:46:22;96636.75;;;16.42;67.55
3150;BME280;32503;47.748;8.960;2022-09-09T01:48:51;96633.66;;;16.40;68.05
3150;BME280;32503;47.748;8.960;2022-09-09T01:51:19;96635.63;;;16.36;67.86
3150;BME280;32503;47.748;8.960;2022-09-09T01:53:47;96646.16;;;16.38;67.84
3150;BME280;32503;47.748;8.960;2022-09-09T01:56:28;96625.50;;;16.37;67.87
3150;BME280;32503;47.748;8.960;2022-09-09T01:59:11;96632.06;;;16.43;67.74
3150;BME280;32503;47.748;8.960;2022-09-09T02:01:56;96627.44;;;16.40;67.55
3150;BME280;32503;47.748;8.960;2022-09-09T02:04:36;96635.97;;;16.45;67.27
3150;BME280;32503;47.748;8.960;2022-09-09T02:07:15;96639.84;;;16.44;67.24
3150;BME280;32503;47.748;8.960;2022-09-09T02:09:52;96633.69;;;16.37;67.54
3150;BME280;32503;47.748;8.960;2022-09-09T02:12:25;96646.94;;;16.35;67.58
3150;BME280;32503;47.748;8.960;2022-09-09T02:14:59;96645.34;;;16.37;67.56
3150;BME280;32503;47.748;8.960;2022-09-09T02:17:31;96643.41;;;16.41;67.81
3150;BME280;32503;47.748;8.960;2022-09-09T02:20:05;96653.13;;;16.42;67.51
3150;BME280;32503;47.748;8.960;2022-09-09T02:22:34;96650.78;;;16.41;67.85
3150;BME280;32503;47.748;8.960;2022-09-09T02:25:08;96654.69;;;16.43;67.67
3150;BME280;32503;47.748;8.960;2022-09-09T02:27:38;96655.03;;;16.49;67.84
3150;BME280;32503;47.748;8.960;2022-09-09T02:30:08;96653.47;;;16.48;67.56
3150;BME280;32503;47.748;8.960;2022-09-09T02:32:36;96640.69;;;16.41;67.90
3150;BME280;32503;47.748;8.960;2022-09-09T02:35:09;96658.56;;;16.46;67.52
3150;BME280;32503;47.748;8.960;2022-09-09T02:37:39;96667.13;;;16.48;67.64
3150;BME280;32503;47.748;8.960;2022-09-09T02:40:10;96664.00;;;16.49;67.75
3150;BME280;32503;47.748;8.960;2022-09-09T02:42:40;96654.63;;;16.54;67.61
3150;BME280;32503;47.748;8.960;2022-09-09T02:45:09;96654.22;;;16.59;67.16
3150;BME280;32503;47.748;8.960;2022-09-09T02:47:42;96643.72;;;16.54;67.06
3150;BME280;32503;47.748;8.960;2022-09-09T02:50:15;96653.03;;;16.60;67.32
3150;BME280;32503;47.748;8.960;2022-09-09T02:53:05;96643.31;;;16.56;67.28
3150;BME280;32503;47.748;8.960;2022-09-09T02:55:39;96653.03;;;16.60;66.94
3150;BME280;32503;47.748;8.960;2022-09-09T02:58:13;96654.59;;;16.58;66.80
3150;BME280;32503;47.748;8.960;2022-09-09T03:00:44;96671.75;;;16.58;67.30
3150;BME280;32503;47.748;8.960;2022-09-09T03:03:12;96679.56;;;16.56;67.48
3150;BME280;32503;47.748;8.960;2022-09-09T03:05:39;96674.50;;;16.55;67.89
3150;BME280;32503;47.748;8.960;2022-09-09T03:08:06;96676.78;;;16.63;67.55
3150;BME280;32503;47.748;8.960;2022-09-09T03:10:33;96679.53;;;16.63;67.52
3150;BME280;32503;47.748;8.960;2022-09-09T03:13:02;96679.50;;;16.67;67.48
3150;BME280;32503;47.748;8.960;2022-09-09T03:15:32;96686.50;;;16.72;67.57
3150;BME280;32503;47.748;8.960;2022-09-09T03:18:00;96684.94;;;16.71;67.82
3150;BME280;32503;47.748;8.960;2022-09-09T03:20:29;96684.16;;;16.74;67.95
3150;BME280;32503;47.748;8.960;2022-09-09T03:22:58;96677.91;;;16.77;67.82
3150;BME280;32503;47.748;8.960;2022-09-09T03:25:25;96684.53;;;16.76;67.78
3150;BME280;32503;47.748;8.960;2022-09-09T03:27:55;96685.31;;;16.73;68.01
3150;BME280;32503;47.748;8.960;2022-09-09T03:30:24;96681.81;;;16.72;68.08
3150;BME280;32503;47.748;8.960;2022-09-09T03:32:53;96676.38;;;16.68;68.10
3150;BME280;32503;47.748;8.960;2022-09-09T03:35:21;96676.38;;;16.68;68.06
3150;BME280;32503;47.748;8.960;2022-09-09T03:37:48;96666.63;;;16.67;67.74
3150;BME280;32503;47.748;8.960;2022-09-09T03:40:15;96677.13;;;16.73;67.91
3150;BME280;32503;47.748;8.960;2022-09-09T03:42:43;96669.34;;;16.67;67.63
3150;BME280;32503;47.748;8.960;2022-09-09T03:45:11;96684.59;;;16.65;68.17
3150;BME280;32503;47.748;8.960;2022-09-09T03:47:38;96677.97;;;16.59;68.33
3150;BME280;32503;47.748;8.960;2022-09-09T03:50:08;96683.84;;;16.57;68.93
3150;BME280;32503;47.748;8.960;2022-09-09T03:52:37;96680.34;;;16.57;69.22
3150;BME280;32503;47.748;8.960;2022-09-09T03:55:06;96672.53;;;16.59;69.15
3150;BME280;32503;47.748;8.960;2022-09-09T03:57:33;96684.22;;;16.59;69.49
3150;BME280;32503;47.748;8.960;2022-09-09T04:00:02;96689.66;;;16.66;69.61
3150;BME280;32503;47.748;8.960;2022-09-09T04:02:30;96680.28;;;16.67;69.49
3150;BME280;32503;47.748;8.960;2022-09-09T04:04:57;96678.72;;;16.70;69.31
3150;BME280;32503;47.748;8.960;2022-09-09T04:07:26;96675.59;;;16.68;69.91
3150;BME280;32503;47.748;8.960;2022-09-09T04:09:54;96682.59;;;16.73;69.60
3150;BME280;32503;47.748;8.960;2022-09-09T04:12:21;96682.19;;;16.74;69.70
3150;BME280;32503;47.748;8.960;2022-09-09T04:14:48;96671.28;;;16.71;69.75
3150;BME280;32503;47.748;8.960;2022-09-09T04:17:15;96671.66;;;16.73;70.12
3150;BME280;32503;47.748;8.960;2022-09-09T04:19:43;96673.22;;;16.74;69.93
3150;BME280;32503;47.748;8.960;2022-09-09T04:22:10;96675.97;;;16.74;69.87
3150;BME280;32503;47.748;8.960;2022-09-09T04:24:38;96679.47;;;16.71;69.94
3150;BME280;32503;47.748;8.960;2022-09-09T04:27:05;96682.59;;;16.73;70.57
3150;BME280;32503;47.748;8.960;2022-09-09T04:29:32;96674.81;;;16.67;70.49
3150;BME280;32503;47.748;8.960;2022-09-09T04:32:00;96681.50;;;16.59;71.78
3150;BME280;32503;47.748;8.960;2022-09-09T04:34:27;96685.78;;;16.60;72.16
3150;BME280;32503;47.748;8.960;2022-09-09T04:36:55;96694.75;;;16.64;71.77
3150;BME280;32503;47.748;8.960;2022-09-09T04:39:22;96690.41;;;16.67;71.97
3150;BME280;32503;47.748;8.960;2022-09-09T04:41:51;96696.63;;;16.71;71.83
3150;BME280;32503;47.748;8.960;2022-09-09T04:44:18;96681.41;;;16.74;71.81
3150;BME280;32503;47.748;8.960;2022-09-09T04:46:46;96688.44;;;16.78;71.79
3150;BME280;32503;47.748;8.960;2022-09-09T04:49:13;96686.09;;;16.77;71.94
3150;BME280;32503;47.748;8.960;2022-09-09T04:51:40;96686.47;;;16.79;71.96
3150;BME280;32503;47.748;8.960;2022-09-09T04:54:07;96676.72;;;16.78;72.24
3150;BME280;32503;47.748;8.960;2022-09-09T04:56:34;96676.31;;;16.79;72.20
3150;BME280;32503;47.748;8.960;2022-09-09T04:59:03;96676.72;;;16.78;72.24
3150;BME280;32503;47.748;8.960;2022-09-09T05:01:31;96671.63;;;16.80;72.20
3150;BME280;32503;47.748;8.960;2022-09-09T05:03:58;96671.22;;;16.81;72.38
3150;BME280;32503;47.748;8.960;2022-09-09T05:06:25;96672.78;;;16.82;72.29
3150;BME280;32503;47.748;8.960;2022-09-09T05:08:52;96677.88;;;16.84;71.93
3150;BME280;32503;47.748;8.960;2022-09-09T05:11:21;96670.47;;;16.84;72.37
3150;BME280;32503;47.748;8.960;2022-09-09T05:13:49;96678.25;;;16.86;72.49
3150;BME280;32503;47.748;8.960;2022-09-09T05:16:19;96684.09;;;16.88;72.47
3150;BME280;32503;47.748;8.960;2022-09-09T05:18:47;96682.13;;;16.89;72.49
3150;BME280;32503;47.748;8.960;2022-09-09T05:21:15;96681.72;;;16.90;72.27
3150;BME280;32503;47.748;8.960;2022-09-09T05:23:44;96685.66;;;16.89;72.58
3150;BME280;32503;47.748;8.960;2022-09-09T05:26:14;96696.94;;;16.91;72.49
3150;BME280;32503;47.748;8.960;2022-09-09T05:28:42;96695.75;;;16.92;72.47
3150;BME280;32503;47.748;8.960;2022-09-09T05:31:10;96691.84;;;16.93;72.23
3150;BME280;32503;47.748;8.960;2022-09-09T05:33:41;96686.41;;;16.93;72.32
3150;BME280;32503;47.748;8.960;2022-09-09T05:36:10;96695.75;;;16.92;72.46
3150;BME280;32503;47.748;8.960;2022-09-09T05:38:39;96700.06;;;16.93;72.56
3150;BME280;32503;47.748;8.960;2022-09-09T05:41:08;96701.22;;;16.92;72.38
3150;BME280;32503;47.748;8.960;2022-09-09T05:43:35;96698.88;;;16.94;72.13
3150;BME280;32503;47.748;8.960;2022-09-09T05:46:05;96695.75;;;16.92;72.18
3150;BME280;32503;47.748;8.960;2022-09-09T05:48:35;96707.06;;;16.94;72.51
3150;BME280;32503;47.748;8.960;2022-09-09T05:51:05;96702.34;;;16.98;72.08
3150;BME280;32503;47.748;8.960;2022-09-09T05:53:34;96709.75;;;17.01;72.19
3150;BME280;32503;47.748;8.960;2022-09-09T05:56:03;96711.28;;;17.06;71.96
3150;BME280;32503;47.748;8.960;2022-09-09T05:58:31;96707.34;;;17.11;72.05
3150;BME280;32503;47.748;8.960;2022-09-09T06:01:03;96713.56;;;17.15;72.08
3150;BME280;32503;47.748;8.960;2022-09-09T06:03:31;96711.59;;;17.19;71.92
3150;BME280;32503;47.748;8.960;2022-09-09T06:05:59;96704.94;;;17.20;72.23
3150;BME280;32503;47.748;8.960;2022-09-09T06:08:28;96708.03;;;17.22;72.41
3150;BME280;32503;47.748;8.960;2022-09-09T06:11:02;96716.22;;;17.22;71.98
3150;BME280;32503;47.748;8.960;2022-09-09T06:13:30;96717.75;;;17.30;71.95
3150;BME280;32503;47.748;8.960;2022-09-09T06:15:57;96720.09;;;17.28;72.19
3150;BME280;32503;47.748;8.960;2022-09-09T06:18:26;96702.59;;;17.18;72.56
3150;BME280;32503;47.748;8.960;2022-09-09T06:20:58;96719.31;;;17.31;72.61
3150;BME280;32503;47.748;8.960;2022-09-09T06:23:28;96718.88;;;17.33;72.38
3150;BME280;32503;47.748;8.960;2022-09-09T06:26:04;96720.06;;;17.35;72.56
3150;BME280;32503;47.748;8.960;2022-09-09T06:28:32;96718.81;;;17.40;72.45
3150;BME280;32503;47.748;8.960;2022-09-09T06:31:00;96691.63;;;17.25;72.18
3150;BME280;32503;47.748;8.960;2022-09-09T06:33:30;96714.84;;;17.52;72.38
3150;BME280;32503;47.748;8.960;2022-09-09T06:35:57;96720.25;;;17.59;72.45
3150;BME280;32503;47.748;8.960;2022-09-09T06:38:24;96708.50;;;17.62;72.22
3150;BME280;32503;47.748;8.960;2022-09-09T06:40:53;96700.75;;;17.57;71.88
3150;BME280;32503;47.748;8.960;2022-09-09T06:43:21;96714.72;;;17.66;71.60
3150;BME280;32503;47.748;8.960;2022-09-09T06:45:56;96718.19;;;17.70;71.49
3150;BME280;32503;47.748;8.960;2022-09-09T06:48:23;96719.75;;;17.71;71.24
3150;BME280;32503;47.748;8.960;2022-09-09T06:50:51;96720.88;;;17.77;71.30
3150;BME280;32503;47.748;8.960;2022-09-09T06:53:26;96711.44;;;17.86;71.04
3150;BME280;32503;47.748;8.960;2022-09-09T06:55:54;96700.88;;;17.88;71.02
3150;BME280;32503;47.748;8.960;2022-09-09T06:58:21;96705.84;;;17.96;70.87
3150;BME280;32503;47.748;8.960;2022-09-09T07:00:49;96708.53;;;18.04;70.86
3150;BME280;32503;47.748;8.960;2022-09-09T07:03:16;96702.09;;;18.17;70.67
3150;BME280;32503;47.748;8.960;2022-09-09T07:05:43;96713.38;;;18.57;70.45
3150;BME280;32503;47.748;8.960;2022-09-09T07:08:11;96715.66;;;19.21;70.11
3150;BME280;32503;47.748;8.960;2022-09-09T07:10:38;96719.31;;;19.61;68.53
3150;BME280;32503;47.748;8.960;2022-09-09T07:13:06;96734.34;;;20.00;67.33
3150;BME280;32503;47.748;8.960;2022-09-09T07:15:33;96726.06;;;20.24;66.14
3150;BME280;32503;47.748;8.960;2022-09-09T07:18:01;96724.09;;;20.44;65.89
3150;BME280;32503;47.748;8.960;2022-09-09T07:20:29;96720.25;;;20.62;65.60
3150;BME280;32503;47.748;8.960;2022-09-09T07:22:58;96726.34;;;20.70;64.79
3150;BME280;32503;47.748;8.960;2022-09-09T07:25:25;96705.19;;;20.70;64.27
3150;BME280;32503;47.748;8.960;2022-09-09T07:27:54;96718.38;;;20.95;63.49
3150;BME280;32503;47.748;8.960;2022-09-09T07:30:23;96728.25;;;21.09;62.88
3150;BME280;32503;47.748;8.960;2022-09-09T07:32:51;96716.59;;;21.21;62.67
3150;BME280;32503;47.748;8.960;2022-09-09T07:35:18;96714.28;;;21.36;61.58
3150;BME280;32503;47.748;8.960;2022-09-09T07:37:45;96716.25;;;21.69;60.94
3150;BME280;32503;47.748;8.960;2022-09-09T07:40:13;96702.44;;;22.02;59.64
3150;BME280;32503;47.748;8.960;2022-09-09T07:42:40;96717.53;;;22.56;58.03
3150;BME280;32503;47.748;8.960;2022-09-09T07:45:08;96714.16;;;23.03;57.00
3150;BME280;32503;47.748;8.960;2022-09-09T07:47:36;96719.13;;;23.46;55.56
3150;BME280;32503;47.748;8.960;2022-09-09T07:50:04;96719.28;;;23.78;54.64
3150;BME280;32503;47.748;8.960;2022-09-09T07:52:31;96716.75;;;23.83;54.71
3150;BME280;32503;47.748;8.960;2022-09-09T07:55:00;96712.22;;;23.77;54.46
3150;BME280;32503;47.748;8.960;2022-09-09T07:57:28;96707.63;;;23.61;54.08
3150;BME280;32503;47.748;8.960;2022-09-09T07:59:56;96718.03;;;23.31;54.40
3150;BME280;32503;47.748;8.960;2022-09-09T08:02:23;96718.81;;;23.32;54.56
3150;BME280;32503;47.748;8.960;2022-09-09T08:04:52;96724.72;;;23.56;54.58
3150;BME280;32503;47.748;8.960;2022-09-09T08:07:19;96735.03;;;24.03;53.47
3150;BME280;32503;47.748;8.960;2022-09-09T08:09:47;96732.88;;;24.42;52.49
3150;BME280;32503;47.748;8.960;2022-09-09T08:12:15;96722.97;;;24.76;51.67
3150;BME280;32503;47.748;8.960;2022-09-09T08:14:42;96718.00;;;24.62;49.90
3150;BME280;32503;47.748;8.960;2022-09-09T08:17:09;96731.41;;;25.04;50.95
3150;BME280;32503;47.748;8.960;2022-09-09T08:19:36;96726.34;;;25.02;48.55
3150;BME280;32503;47.748;8.960;2022-09-09T08:22:05;96736.41;;;25.18;50.01
3150;BME280;32503;47.748;8.960;2022-09-09T08:24:43;96732.22;;;25.45;49.14
3150;BME280;32503;47.748;8.960;2022-09-09T08:27:10;96742.56;;;25.63;48.73
3150;BME280;32503;47.748;8.960;2022-09-09T08:29:40;96746.03;;;25.95;48.31
3150;BME280;32503;47.748;8.960;2022-09-09T08:32:07;96739.44;;;26.20;46.82
3150;BME280;32503;47.748;8.960;2022-09-09T08:34:35;96751.75;;;26.28;46.67
3150;BME280;32503;47.748;8.960;2022-09-09T08:37:03;96753.91;;;26.24;45.35
3150;BME280;32503;47.748;8.960;2022-09-09T08:39:30;96754.78;;;25.93;45.96
3150;BME280;32503;47.748;8.960;2022-09-09T08:42:29;96747.53;;;25.68;46.45
3150;BME280;32503;47.748;8.960;2022-09-09T08:45:17;96741.31;;;25.54;46.89
3150;BME280;32503;47.748;8.960;2022-09-09T08:48:02;96743.03;;;25.52;47.49
3150;BME280;32503;47.748;8.960;2022-09-09T08:50:36;96748.66;;;25.39;47.47
3150;BME280;32503;47.748;8.960;2022-09-09T08:53:10;96747.28;;;25.44;47.95
3150;BME280;32503;47.748;8.960;2022-09-09T08:55:44;96739.88;;;25.31;47.81
3150;BME280;32503;47.748;8.960;2022-09-09T08:58:15;96734.66;;;25.43;47.70
3150;BME280;32503;47.748;8.960;2022-09-09T09:01:00;96738.31;;;25.30;46.24
3150;BME280;32503;47.748;8.960;2022-09-09T09:03:40;96732.78;;;25.30;47.11
3150;BME280;32503;47.748;8.960;2022-09-09T09:06:23;96736.22;;;25.44;46.34
3150;BME280;32503;47.748;8.960;2022-09-09T09:09:01;96736.91;;;25.76;45.92
3150;BME280;32503;47.748;8.960;2022-09-09T09:11:36;96734.28;;;25.63;45.12
3150;BME280;32503;47.748;8.960;2022-09-09T09:14:09;96731.22;;;25.79;45.47
3150;BME280;32503;47.748;8.960;2022-09-09T09:16:57;96735.44;;;26.11;45.44
3150;BME280;32503;47.748;8.960;2022-09-09T09:19:34;96730.31;;;25.82;46.05
3150;BME280;32503;47.748;8.960;2022-09-09T09:22:10;96737.22;;;25.68;45.25
3150;BME280;32503;47.748;8.960;2022-09-09T09:24:48;96730.81;;;25.40;45.72
3150;BME280;32503;47.748;8.960;2022-09-09T09:27:27;96742.47;;;25.04;45.90
3150;BME280;32503;47.748;8.960;2022-09-09T09:29:59;96747.81;;;24.45;45.92
3150;BME280;32503;47.748;8.960;2022-09-09T09:32:32;96741.41;;;24.13;47.28
3150;BME280;32503;47.748;8.960;2022-09-09T09:35:06;96740.00;;;24.08;48.05
3150;BME280;32503;47.748;8.960;2022-09-09T09:37:36;96747.19;;;24.28;47.85
3150;BME280;32503;47.748;8.960;2022-09-09T09:40:13;96742.22;;;24.57;47.54
3150;BME280;32503;47.748;8.960;2022-09-09T09:42:49;96735.03;;;24.91;46.09
3150;BME280;32503;47.748;8.960;2022-09-09T09:45:28;96740.72;;;25.19;45.62
3150;BME280;32503;47.748;8.960;2022-09-09T09:48:03;96732.94;;;25.27;44.58
3150;BME280;32503;47.748;8.960;2022-09-09T09:50:32;96737.03;;;25.22;44.10
3150;BME280;32503;47.748;8.960;2022-09-09T09:53:02;96715.81;;;25.19;44.31
3150;BME280;32503;47.748;8.960;2022-09-09T09:55:33;96730.94;;;25.27;43.69
3150;BME280;32503;47.748;8.960;2022-09-09T09:58:04;96725.72;;;25.29;43.39
3150;BME280;32503;47.748;8.960;2022-09-09T10:00:33;96721.34;;;25.50;43.64
3150;BME280;32503;47.748;8.960;2022-09-09T10:03:01;96728.44;;;25.70;41.76
3150;BME280;32503;47.748;8.960;2022-09-09T10:05:29;96729.22;;;25.80;41.76
3150;BME280;32503;47.748;8.960;2022-09-09T10:08:05;96726.31;;;25.92;41.44
3150;BME280;32503;47.748;8.960;2022-09-09T10:10:52;96731.09;;;26.01;41.12
3150;BME280;32503;47.748;8.960;2022-09-09T10:13:29;96722.22;;;26.16;41.02
3150;BME280;32503;47.748;8.960;2022-09-09T10:16:15;96715.88;;;26.15;41.37
3150;BME280;32503;47.748;8.960;2022-09-09T10:18:57;96722.00;;;26.47;40.63
3150;BME280;32503;47.748;8.960;2022-09-09T10:21:52;96722.66;;;26.51;40.50
3150;BME280;32503;47.748;8.960;2022-09-09T10:25:14;96707.13;;;26.07;39.65
3150;BME280;32503;47.748;8.960;2022-09-09T10:28:01;96730.75;;;25.81;40.29
3150;BME280;32503;47.748;8.960;2022-09-09T10:30:42;96716.88;;;25.53;41.26
3150;BME280;32503;47.748;8.960;2022-09-09T10:33:18;96707.81;;;25.62;41.47
3150;BME280;32503;47.748;8.960;2022-09-09T10:35:52;96717.84;;;25.78;40.44
3150;BME280;32503;47.748;8.960;2022-09-09T10:38:29;96716.19;;;25.99;39.88
3150;BME280;32503;47.748;8.960;2022-09-09T10:41:18;96708.66;;;25.99;39.59
3150;BME280;32503;47.748;8.960;2022-09-09T10:44:06;96712.28;;;25.78;38.96
3150;BME280;32503;47.748;8.960;2022-09-09T10:46:53;96705.75;;;25.34;39.51
3150;BME280;32503;47.748;8.960;2022-09-09T10:49:45;96686.88;;;25.02;40.54
3150;BME280;32503;47.748;8.960;2022-09-09T10:52:22;96711.69;;;24.83;41.10
3150;BME280;32503;47.748;8.960;2022-09-09T10:54:59;96721.09;;;24.64;42.20
3150;BME280;32503;47.748;8.960;2022-09-09T10:57:33;96722.47;;;24.24;42.25
3150;BME280;32503;47.748;8.960;2022-09-09T11:00:10;96712.31;;;23.99;42.98
3150;BME280;32503;47.748;8.960;2022-09-09T11:02:41;96742.59;;;23.90;42.98
3150;BME280;32503;47.748;8.960;2022-09-09T11:05:16;96736.41;;;23.85;44.01
3150;BME280;32503;47.748;8.960;2022-09-09T11:07:49;96734.41;;;23.73;44.40
3150;BME280;32503;47.748;8.960;2022-09-09T11:10:25;96723.69;;;23.75;44.81
3150;BME280;32503;47.748;8.960;2022-09-09T11:13:00;96721.63;;;23.79;45.51
3150;BME280;32503;47.748;8.960;2022-09-09T11:15:37;96689.88;;;23.62;44.59
3150;BME280;32503;47.748;8.960;2022-09-09T11:18:11;96716.66;;;23.74;44.54
3150;BME280;32503;47.748;8.960;2022-09-09T11:20:40;96711.81;;;23.65;44.81
3150;BME280;32503;47.748;8.960;2022-09-09T11:23:13;96709.22;;;23.49;45.06
3150;BME280;32503;47.748;8.960;2022-09-09T11:25:48;96693.41;;;23.50;45.18
3150;BME280;32503;47.748;8.960;2022-09-09T11:28:37;96713.97;;;23.96;45.03
3150;BME280;32503;47.748;8.960;2022-09-09T11:31:21;96703.59;;;24.22;43.93
3150;BME280;32503;47.748;8.960;2022-09-09T11:34:03;96694.19;;;24.55;43.58
3150;BME280;32503;47.748;8.960;2022-09-09T11:40:19;96693.84;;;24.84;40.98
3150;BME280;32503;47.748;8.960;2022-09-09T11:42:47;96699.50;;;25.12;41.39
3150;BME280;32503;47.748;8.960;2022-09-09T11:45:25;96670.28;;;25.02;40.38
3150;BME280;32503;47.748;8.960;2022-09-09T11:47:57;96694.06;;;25.30;39.28
3150;BME280;32503;47.748;8.960;2022-09-09T11:50:31;96694.13;;;25.58;39.86
3150;BME280;32503;47.748;8.960;2022-09-09T11:53:18;96697.53;;;25.90;39.60
3150;BME280;32503;47.748;8.960;2022-09-09T11:55:59;96691.88;;;25.94;38.38
3150;BME280;32503;47.748;8.960;2022-09-09T11:58:28;96694.34;;;26.01;38.87
3150;BME280;32503;47.748;8.960;2022-09-09T12:00:58;96683.56;;;25.94;37.51
3150;BME280;32503;47.748;8.960;2022-09-09T12:03:36;96680.94;;;25.90;38.02
3150;BME280;32503;47.748;8.960;2022-09-09T12:06:15;96678.16;;;25.90;37.42
3150;BME280;32503;47.748;8.960;2022-09-09T12:08:46;96691.69;;;25.88;38.31
3150;BME280;32503;47.748;8.960;2022-09-09T12:11:25;96685.81;;;25.58;38.00
3150;BME280;32503;47.748;8.960;2022-09-09T12:13:54;96681.03;;;25.59;39.19
3150;BME280;32503;47.748;8.960;2022-09-09T12:16:31;96668.41;;;24.98;39.62
3150;BME280;32503;47.748;8.960;2022-09-09T12:19:16;96681.94;;;25.37;40.21
3150;BME280;32503;47.748;8.960;2022-09-09T12:21:53;96672.31;;;25.20;39.30
3150;BME280;32503;47.748;8.960;2022-09-09T12:24:30;96664.16;;;25.16;38.63
3150;BME280;32503;47.748;8.960;2022-09-09T12:27:07;96668.78;;;25.19;39.10
3150;BME280;32503;47.748;8.960;2022-09-09T12:29:47;96680.94;;;25.22;40.09
3150;BME280;32503;47.748;8.960;2022-09-09T12:32:24;96668.56;;;25.35;39.48
3150;BME280;32503;47.748;8.960;2022-09-09T12:34:55;96666.66;;;25.23;39.39
3150;BME280;32503;47.748;8.960;2022-09-09T12:37:31;96661.38;;;25.07;39.47
3150;BME280;32503;47.748;8.960;2022-09-09T12:40:03;96652.28;;;24.97;39.43
3150;BME280;32503;47.748;8.960;2022-09-09T12:42:31;96657.44;;;25.17;39.89
3150;BME280;32503;47.748;8.960;2022-09-09T12:45:02;96642.63;;;25.11;39.59
3150;BME280;32503;47.748;8.960;2022-09-09T12:47:38;96653.81;;;25.29;40.01
3150;BME280;32503;47.748;8.960;2022-09-09T12:50:19;96648.13;;;25.51;40.33
3150;BME280;32503;47.748;8.960;2022-09-09T12:52:48;96642.94;;;25.81;39.59
3150;BME280;32503;47.748;8.960;2022-09-09T12:55:19;96622.50;;;25.97;39.90
3150;BME280;32503;47.748;8.960;2022-09-09T12:57:48;96633.41;;;26.19;39.89
3150;BME280;32503;47.748;8.960;2022-09-09T13:00:19;96627.22;;;26.34;37.27
3150;BME280;32503;47.748;8.960;2022-09-09T13:02:52;96627.06;;;26.19;37.59
3150;BME280;32503;47.748;8.960;2022-09-09T13:05:24;96618.63;;;26.13;37.42
3150;BME280;32503;47.748;8.960;2022-09-09T13:08:00;96618.16;;;26.15;37.44
3150;BME280;32503;47.748;8.960;2022-09-09T13:10:31;96611.72;;;25.99;36.95
3150;BME280;32503;47.748;8.960;2022-09-09T13:12:59;96625.56;;;26.08;37.76
3150;BME280;32503;47.748;8.960;2022-09-09T13:15:28;96598.19;;;25.83;36.95
3150;BME280;32503;47.748;8.960;2022-09-09T13:17:58;96610.81;;;25.84;37.44
3150;BME280;32503;47.748;8.960;2022-09-09T13:20:28;96610.78;;;25.74;36.76
3150;BME280;32503;47.748;8.960;2022-09-09T13:22:57;96600.63;;;25.53;37.44
3150;BME280;32503;47.748;8.960;2022-09-09T13:25:26;96603.72;;;25.64;38.22
3150;BME280;32503;47.748;8.960;2022-09-09T13:27:59;96601.25;;;25.66;37.33
3150;BME280;32503;47.748;8.960;2022-09-09T13:30:29;96601.56;;;25.78;37.41
3150;BME280;32503;47.748;8.960;2022-09-09T13:33:20;96607.56;;;25.76;37.90
3150;BME280;32503;47.748;8.960;2022-09-09T13:35:52;96608.34;;;25.77;37.74
3150;BME280;32503;47.748;8.960;2022-09-09T13:38:21;96602.63;;;25.62;38.06
3150;BME280;32503;47.748;8.960;2022-09-09T13:40:58;96602.78;;;25.67;38.72
3150;BME280;32503;47.748;8.960;2022-09-09T13:43:29;96597.28;;;25.77;38.80